createdAt,value
2022-11-23T00:01:23.550Z,96.90
2022-11-23T00:03:51.915Z,96.70
2022-11-23T00:06:18.959Z,96.00
2022-11-23T00:08:45.853Z,95.80
2022-11-23T00:11:12.854Z,96.00
2022-11-23T00:13:40.692Z,95.90
2022-11-23T00:19:16.506Z,96.20
2022-11-23T00:21:43.271Z,96.20
2022-11-23T00:24:12.736Z,96.20
2022-11-23T00:26:39.572Z,96.00
2022-11-23T00:29:07.493Z,96.20
2022-11-23T00:31:34.278Z,96.40
2022-11-23T00:34:01.036Z,96.00
2022-11-23T00:36:27.842Z,96.00
2022-11-23T00:38:54.750Z,96.60
2022-11-23T00:41:23.380Z,96.30
2022-11-23T00:43:50.257Z,96.30
2022-11-23T00:46:18.850Z,96.10
2022-11-23T00:48:47.076Z,96.10
2022-11-23T00:51:18.523Z,96.50
2022-11-23T00:53:45.293Z,96.20
2022-11-23T00:56:12.283Z,96.20
2022-11-23T00:58:39.489Z,96.10
2022-11-23T01:01:14.443Z,96.20
2022-11-23T01:03:46.265Z,96.20
2022-11-23T01:06:18.105Z,96.20
2022-11-23T01:08:49.462Z,96.40
2022-11-23T01:11:16.219Z,96.40
2022-11-23T01:13:43.074Z,96.40
2022-11-23T01:16:23.563Z,96.50
2022-11-23T01:18:54.738Z,96.80
2022-11-23T01:21:21.491Z,96.40
2022-11-23T01:23:48.229Z,96.50
2022-11-23T01:26:14.998Z,96.50
2022-11-23T01:28:41.784Z,96.50
2022-11-23T01:31:13.502Z,96.40
2022-11-23T01:33:41.484Z,96.50
2022-11-23T01:36:11.412Z,96.50
2022-11-23T01:38:38.131Z,96.50
2022-11-23T01:41:09.663Z,96.60
2022-11-23T01:43:36.706Z,96.70
2022-11-23T01:46:03.911Z,96.70
2022-11-23T01:48:45.788Z,96.70
2022-11-23T01:51:20.942Z,96.70
2022-11-23T01:53:48.465Z,96.60
2022-11-23T01:56:17.706Z,96.60
2022-11-23T01:58:46.671Z,96.60
2022-11-23T02:01:13.593Z,96.50
2022-11-23T02:03:40.878Z,96.60
2022-11-23T02:06:10.641Z,96.50
2022-11-23T02:08:38.090Z,96.50
2022-11-23T02:11:05.014Z,96.50
2022-11-23T02:13:31.756Z,96.50
2022-11-23T02:15:59.253Z,96.60
2022-11-23T02:18:27.740Z,96.70
2022-11-23T02:20:54.584Z,96.60
2022-11-23T02:23:43.086Z,96.80
2022-11-23T02:26:21.399Z,96.70
2022-11-23T02:28:51.149Z,96.80
2022-11-23T02:31:17.873Z,96.70
2022-11-23T02:33:44.761Z,96.80
2022-11-23T02:36:33.415Z,96.80
2022-11-23T02:39:00.865Z,96.80
2022-11-23T02:41:27.618Z,96.80
2022-11-23T02:43:55.850Z,96.90
2022-11-23T02:46:22.573Z,96.90
2022-11-23T02:48:49.251Z,97.00
2022-11-23T02:51:15.994Z,97.00
2022-11-23T02:53:43.678Z,97.10
2022-11-23T02:56:10.393Z,97.10
2022-11-23T02:58:37.136Z,97.20
2022-11-23T03:01:03.894Z,97.10
2022-11-23T03:03:30.642Z,97.10
2022-11-23T03:05:57.395Z,97.10
2022-11-23T03:08:24.103Z,97.10
2022-11-23T03:10:50.845Z,97.10
2022-11-23T03:13:17.590Z,97.20
2022-11-23T03:15:45.800Z,97.50
2022-11-23T03:18:12.534Z,97.10
2022-11-23T03:20:39.245Z,97.20
2022-11-23T03:23:05.973Z,97.10
2022-11-23T03:25:32.695Z,97.20
2022-11-23T03:27:59.390Z,97.30
2022-11-23T03:30:26.104Z,97.30
2022-11-23T03:32:52.875Z,97.30
2022-11-23T03:35:19.587Z,97.20
2022-11-23T03:37:47.755Z,97.20
2022-11-23T03:40:14.551Z,97.60
2022-11-23T03:42:41.605Z,97.20
2022-11-23T03:45:09.416Z,97.20
2022-11-23T03:47:36.749Z,97.30
2022-11-23T03:50:03.590Z,97.30
2022-11-23T03:52:30.293Z,97.30
2022-11-23T03:54:56.995Z,97.40
2022-11-23T03:57:23.730Z,97.70
2022-11-23T03:59:50.466Z,97.40
2022-11-23T04:02:18.352Z,97.50
2022-11-23T04:04:45.062Z,97.50
2022-11-23T04:07:11.794Z,97.60
2022-11-23T04:09:38.550Z,97.60
2022-11-23T04:12:05.533Z,97.60
2022-11-23T04:14:32.357Z,97.50
2022-11-23T04:16:59.067Z,97.60
2022-11-23T04:19:25.855Z,97.50
2022-11-23T04:21:52.617Z,97.60
2022-11-23T04:24:20.690Z,97.50
2022-11-23T04:26:47.450Z,97.50
2022-11-23T04:29:14.215Z,97.50
2022-11-23T04:31:40.932Z,97.50
2022-11-23T04:34:07.658Z,97.50
2022-11-23T04:36:34.391Z,97.60
2022-11-23T04:39:01.233Z,97.70
2022-11-23T04:41:27.948Z,97.70
2022-11-23T04:43:54.713Z,97.70
2022-11-23T04:46:22.082Z,97.60
2022-11-23T04:48:50.197Z,97.60
2022-11-23T04:51:17.088Z,97.60
2022-11-23T04:53:43.808Z,97.60
2022-11-23T04:56:10.525Z,97.50
2022-11-23T04:58:37.293Z,97.50
2022-11-23T05:01:04.208Z,97.60
2022-11-23T05:03:31.370Z,97.50
2022-11-23T05:05:58.657Z,97.50
2022-11-23T05:08:25.382Z,97.50
2022-11-23T05:10:52.862Z,97.60
2022-11-23T05:13:19.653Z,97.70
2022-11-23T05:15:46.375Z,97.80
2022-11-23T05:18:13.100Z,97.90
2022-11-23T05:20:40.259Z,97.90
2022-11-23T05:23:07.081Z,97.70
2022-11-23T05:25:34.105Z,97.70
2022-11-23T05:28:11.204Z,97.70
2022-11-23T05:30:43.741Z,97.60
2022-11-23T05:33:10.475Z,97.60
2022-11-23T05:35:37.443Z,97.60
2022-11-23T05:38:04.546Z,97.60
2022-11-23T05:40:31.305Z,97.60
2022-11-23T05:42:58.141Z,97.50
2022-11-23T05:45:25.446Z,97.60
2022-11-23T05:47:54.454Z,97.60
2022-11-23T05:50:21.592Z,97.60
2022-11-23T05:52:48.314Z,97.70
2022-11-23T05:55:15.395Z,97.60
2022-11-23T05:57:42.151Z,97.60
2022-11-23T06:00:12.474Z,97.60
2022-11-23T06:02:41.254Z,97.60
2022-11-23T06:05:09.040Z,97.60
2022-11-23T06:07:35.912Z,97.60
2022-11-23T06:10:02.887Z,97.50
2022-11-23T06:12:29.789Z,97.60
2022-11-23T06:14:56.862Z,97.50
2022-11-23T06:17:23.934Z,97.60
2022-11-23T06:19:51.222Z,97.50
2022-11-23T06:22:17.980Z,97.50
2022-11-23T06:24:44.695Z,97.50
2022-11-23T06:27:16.679Z,97.40
2022-11-23T06:29:44.597Z,97.60
2022-11-23T06:32:11.398Z,97.50
2022-11-23T06:34:38.177Z,97.60
2022-11-23T06:37:04.920Z,97.50
2022-11-23T06:39:31.958Z,97.50
2022-11-23T06:42:16.534Z,97.40
2022-11-23T06:44:45.606Z,97.90
2022-11-23T06:47:16.603Z,97.50
2022-11-23T06:49:44.460Z,97.40
2022-11-23T06:52:11.165Z,97.50
2022-11-23T06:54:37.944Z,97.50
2022-11-23T06:57:07.929Z,97.70
2022-11-23T06:59:34.888Z,97.40
2022-11-23T07:02:01.640Z,97.40
2022-11-23T07:04:29.228Z,97.40
2022-11-23T07:06:55.983Z,97.50
2022-11-23T07:09:22.718Z,97.90
2022-11-23T07:11:49.655Z,97.60
2022-11-23T07:14:16.487Z,97.60
2022-11-23T07:16:43.258Z,97.50
2022-11-23T07:19:09.979Z,97.50
2022-11-23T07:21:36.815Z,97.50
2022-11-23T07:24:03.684Z,97.50
2022-11-23T07:26:30.531Z,97.50
2022-11-23T07:28:58.308Z,97.50
2022-11-23T07:31:25.050Z,97.50
2022-11-23T07:33:51.844Z,97.50
2022-11-23T07:36:19.252Z,97.40
2022-11-23T07:38:46.035Z,97.60
2022-11-23T07:41:12.842Z,97.50
2022-11-23T07:43:39.549Z,97.60
2022-11-23T07:46:06.371Z,97.60
2022-11-23T07:48:36.340Z,97.60
2022-11-23T07:51:03.515Z,97.60
2022-11-23T07:53:31.719Z,97.80
2022-11-23T07:56:01.697Z,97.70
2022-11-23T07:58:28.867Z,97.60
2022-11-23T08:00:56.711Z,97.20
2022-11-23T08:03:28.561Z,97.60
2022-11-23T08:05:56.780Z,97.70
2022-11-23T08:08:23.952Z,97.60
2022-11-23T08:10:53.816Z,97.70
2022-11-23T08:13:21.384Z,97.90
2022-11-23T08:15:53.697Z,97.90
2022-11-23T08:18:21.498Z,97.50
2022-11-23T08:20:48.735Z,97.90
2022-11-23T08:23:15.585Z,98.00
2022-11-23T08:25:42.358Z,98.40
2022-11-23T08:28:09.400Z,98.10
2022-11-23T08:30:36.512Z,98.40
2022-11-23T08:33:06.303Z,98.20
2022-11-23T08:35:37.664Z,98.30
2022-11-23T08:38:05.304Z,98.30
2022-11-23T08:40:33.625Z,98.40
2022-11-23T08:43:00.914Z,98.50
2022-11-23T08:45:28.720Z,98.50
2022-11-23T08:48:01.094Z,98.80
2022-11-23T08:50:29.582Z,98.40
2022-11-23T08:52:57.353Z,96.70
2022-11-23T08:55:24.936Z,98.60
2022-11-23T08:57:54.526Z,97.80
2022-11-23T09:00:21.441Z,96.90
2022-11-23T09:02:48.235Z,96.50
2022-11-23T09:05:15.082Z,97.30
2022-11-23T09:07:42.101Z,97.20
2022-11-23T09:10:12.509Z,97.80
2022-11-23T09:12:41.891Z,97.90
2022-11-23T09:15:09.063Z,97.80
2022-11-23T09:17:36.197Z,98.00
2022-11-23T09:20:04.666Z,98.00
2022-11-23T09:22:31.992Z,97.30
2022-11-23T09:25:00.336Z,97.70
2022-11-23T09:27:27.237Z,97.70
2022-11-23T09:29:54.052Z,95.50
2022-11-23T09:32:20.915Z,95.90
2022-11-23T09:34:48.014Z,96.60
2022-11-23T09:37:15.393Z,96.90
2022-11-23T09:39:42.244Z,97.30
2022-11-23T09:42:25.314Z,97.60
2022-11-23T09:44:52.472Z,97.60
2022-11-23T09:47:34.568Z,97.60
2022-11-23T09:50:07.974Z,97.70
2022-11-23T09:52:36.821Z,98.20
2022-11-23T09:55:10.499Z,98.60
2022-11-23T09:57:40.764Z,97.80
2022-11-23T10:00:16.310Z,97.80
2022-11-23T10:02:43.392Z,97.90
2022-11-23T10:05:17.061Z,97.90
2022-11-23T10:08:14.894Z,98.80
2022-11-23T10:10:58.939Z,98.30
2022-11-23T10:13:45.937Z,98.60
2022-11-23T10:16:22.648Z,98.60
2022-11-23T10:19:00.187Z,98.60
2022-11-23T10:21:29.872Z,98.50
2022-11-23T10:23:57.373Z,98.60
2022-11-23T10:26:35.775Z,98.60
2022-11-23T10:29:17.348Z,98.60
2022-11-23T10:31:46.097Z,98.90
2022-11-23T10:34:17.790Z,98.80
2022-11-23T10:36:44.617Z,98.70
2022-11-23T10:39:24.740Z,98.60
2022-11-23T10:41:51.912Z,98.70
2022-11-23T10:44:22.606Z,98.70
2022-11-23T10:46:49.505Z,99.00
2022-11-23T10:49:18.470Z,98.50
2022-11-23T10:51:55.113Z,98.30
2022-11-23T10:54:22.017Z,98.40
2022-11-23T10:56:49.790Z,98.50
2022-11-23T10:59:35.212Z,98.40
2022-11-23T11:02:19.471Z,98.60
2022-11-23T11:04:46.948Z,98.50
2022-11-23T11:07:29.733Z,98.20
2022-11-23T11:09:58.838Z,98.40
2022-11-23T11:12:26.475Z,98.30
2022-11-23T11:15:05.286Z,98.20
2022-11-23T11:17:39.426Z,98.10
2022-11-23T11:20:24.147Z,97.60
2022-11-23T11:22:50.866Z,98.00
2022-11-23T11:25:38.130Z,97.60
2022-11-23T11:28:06.659Z,97.80
2022-11-23T11:30:46.118Z,97.90
2022-11-23T11:33:19.572Z,97.90
2022-11-23T11:35:50.620Z,97.60
2022-11-23T11:38:19.519Z,97.70
2022-11-23T11:40:48.758Z,97.60
2022-11-23T11:43:34.740Z,97.60
2022-11-23T11:46:31.823Z,96.70
2022-11-23T11:48:58.888Z,97.40
2022-11-23T11:51:33.086Z,97.60
2022-11-23T12:11:31.375Z,96.00
2022-11-23T12:14:01.393Z,92.00
2022-11-23T12:17:24.743Z,91.70
2022-11-23T12:20:06.709Z,92.60
2022-11-23T12:22:45.165Z,93.30
2022-11-23T12:25:24.280Z,93.70
2022-11-23T12:28:14.125Z,93.80
2022-11-23T12:30:58.530Z,93.80
2022-11-23T12:34:07.304Z,93.90
2022-11-23T12:36:43.364Z,94.30
2022-11-23T12:39:37.075Z,94.40
2022-11-23T12:42:11.023Z,94.90
2022-11-23T12:44:53.442Z,94.80
2022-11-23T12:47:35.506Z,94.80
2022-11-23T12:50:06.218Z,94.90
2022-11-23T12:52:54.693Z,94.60
2022-11-23T12:55:54.349Z,94.70
2022-11-23T12:58:27.788Z,94.70
2022-11-23T13:01:05.134Z,94.60
2022-11-23T13:04:09.133Z,94.50
2022-11-23T13:07:05.551Z,94.30
2022-11-23T13:09:53.481Z,94.20
2022-11-23T13:12:38.600Z,93.70
2022-11-23T13:15:40.580Z,93.40
2022-11-23T13:18:46.310Z,93.30
2022-11-23T13:21:37.555Z,93.20
2022-11-23T13:24:05.553Z,93.20
2022-11-23T13:26:32.424Z,93.20
2022-11-23T13:29:00.344Z,93.20
2022-11-23T13:31:31.619Z,93.20
2022-11-23T13:34:03.041Z,93.10
2022-11-23T13:36:49.468Z,93.30
2022-11-23T13:39:45.304Z,93.00
2022-11-23T13:42:12.444Z,92.70
2022-11-23T13:44:39.470Z,92.50
2022-11-23T13:47:18.332Z,92.40
2022-11-23T13:49:52.700Z,92.40
2022-11-23T13:52:25.159Z,92.40
2022-11-23T13:55:08.943Z,92.30
2022-11-23T13:57:41.025Z,92.20
2022-11-23T14:01:02.623Z,92.00
2022-11-23T14:03:50.549Z,92.60
2022-11-23T14:06:47.780Z,93.50
2022-11-23T14:09:29.913Z,92.50
2022-11-23T14:12:11.850Z,91.80
2022-11-23T14:15:08.153Z,92.00
2022-11-23T14:17:49.997Z,91.60
2022-11-23T14:20:27.649Z,91.90
2022-11-23T14:23:25.199Z,92.30
2022-11-23T14:26:21.855Z,92.60
2022-11-23T14:28:55.910Z,94.30
2022-11-23T14:31:34.892Z,95.70
2022-11-23T14:34:35.309Z,96.10
2022-11-23T14:37:30.007Z,94.70
2022-11-23T14:40:39.390Z,94.20
2022-11-23T14:43:13.409Z,93.80
2022-11-23T14:45:40.687Z,93.00
2022-11-23T14:48:27.786Z,92.60
2022-11-23T14:51:00.976Z,92.20
2022-11-23T14:53:49.155Z,92.10
2022-11-23T14:56:35.295Z,92.00
2022-11-23T14:59:10.361Z,91.80
2022-11-23T15:01:38.210Z,91.90
2022-11-23T15:04:13.694Z,91.80
2022-11-23T15:06:45.706Z,91.60
2022-11-23T15:09:45.232Z,91.50
2022-11-23T15:12:23.758Z,91.40
2022-11-23T15:14:51.334Z,91.40
2022-11-23T15:17:19.502Z,91.40
2022-11-23T15:19:59.382Z,91.20
2022-11-23T15:22:27.106Z,91.30
2022-11-23T15:24:54.227Z,91.40
2022-11-23T15:27:28.382Z,91.20
2022-11-23T15:29:56.925Z,91.30
2022-11-23T15:32:33.182Z,91.20
2022-11-23T15:35:08.445Z,91.20
2022-11-23T15:37:43.974Z,91.30
2022-11-23T15:40:17.928Z,91.20
2022-11-23T15:42:45.475Z,91.10
2022-11-23T15:45:45.987Z,91.20
2022-11-23T15:48:29.201Z,91.00
2022-11-23T15:50:58.918Z,91.00
2022-11-23T15:53:45.209Z,91.20
2022-11-23T15:56:19.927Z,91.40
2022-11-23T15:58:47.504Z,91.50
2022-11-23T16:01:14.575Z,91.50
2022-11-23T16:04:02.593Z,91.60
2022-11-23T16:06:41.020Z,91.60
2022-11-23T16:12:22.588Z,91.70
2022-11-23T16:14:49.753Z,91.60
2022-11-23T16:17:20.857Z,91.80
2022-11-23T16:19:51.950Z,91.70
2022-11-23T16:22:33.343Z,91.70
2022-11-23T16:25:09.088Z,91.80
2022-11-23T16:27:36.234Z,91.90
2022-11-23T16:30:04.689Z,91.90
2022-11-23T16:32:31.927Z,92.00
2022-11-23T16:35:09.957Z,92.10
2022-11-23T16:37:38.127Z,92.10
2022-11-23T16:40:06.552Z,92.10
2022-11-23T16:42:33.810Z,92.10
2022-11-23T16:45:00.876Z,92.10
2022-11-23T16:47:28.464Z,92.10
2022-11-23T16:49:55.529Z,92.10
2022-11-23T16:52:22.881Z,92.20
2022-11-23T16:54:50.119Z,92.10
2022-11-23T16:57:34.966Z,92.10
2022-11-23T17:00:07.682Z,92.50
2022-11-23T17:02:34.732Z,92.10
2022-11-23T17:05:01.563Z,92.10
2022-11-23T17:07:28.412Z,92.20
2022-11-23T17:09:56.458Z,92.10
2022-11-23T17:12:23.203Z,92.10
2022-11-23T17:14:49.978Z,92.10
2022-11-23T17:17:22.069Z,92.10
2022-11-23T17:19:49.811Z,92.10
2022-11-23T17:22:19.813Z,92.10
2022-11-23T17:24:47.175Z,92.00
2022-11-23T17:27:19.061Z,91.70
2022-11-23T17:29:46.143Z,91.80
2022-11-23T17:32:13.769Z,91.50
2022-11-23T17:34:41.299Z,91.60
2022-11-23T17:37:20.220Z,91.60
2022-11-23T17:39:47.622Z,91.70
2022-11-23T17:42:14.528Z,91.80
2022-11-23T17:44:41.325Z,91.90
2022-11-23T17:47:15.055Z,91.70
2022-11-23T17:49:41.826Z,92.50
2022-11-23T17:52:10.860Z,92.00
2022-11-23T17:54:38.370Z,91.60
2022-11-23T17:57:05.124Z,91.30
2022-11-23T17:59:32.436Z,91.00
2022-11-23T18:01:59.425Z,91.10
2022-11-23T18:04:26.226Z,91.10
2022-11-23T18:06:52.955Z,91.50
2022-11-23T18:09:19.682Z,91.20
2022-11-23T18:11:46.665Z,90.90
2022-11-23T18:14:13.489Z,91.30
2022-11-23T18:16:40.788Z,91.60
2022-11-23T18:19:08.641Z,91.80
2022-11-23T18:21:35.373Z,91.30
2022-11-23T18:24:04.711Z,91.50
2022-11-23T18:26:31.852Z,91.30
2022-11-23T18:28:58.550Z,90.70
2022-11-23T18:31:25.357Z,90.30
2022-11-23T18:33:52.097Z,90.00
2022-11-23T18:36:19.011Z,90.20
2022-11-23T18:38:45.971Z,90.60
2022-11-23T18:41:14.407Z,91.50
2022-11-23T18:43:42.314Z,91.70
2022-11-23T18:46:10.831Z,91.60
2022-11-23T18:48:37.750Z,91.50
2022-11-23T18:51:04.991Z,91.70
2022-11-23T18:53:32.573Z,91.70
2022-11-23T18:56:03.874Z,91.80
2022-11-23T18:58:34.832Z,91.80
2022-11-23T19:01:21.155Z,92.00
2022-11-23T19:03:49.191Z,92.30
2022-11-23T19:06:16.582Z,92.70
2022-11-23T19:08:44.900Z,92.70
2022-11-23T19:11:20.279Z,92.80
2022-11-23T19:13:49.055Z,93.20
2022-11-23T19:16:17.885Z,93.80
2022-11-23T19:18:45.176Z,94.00
2022-11-23T19:21:17.050Z,93.70
2022-11-23T19:23:44.439Z,93.50
2022-11-23T19:26:11.307Z,93.90
2022-11-23T19:28:38.151Z,93.80
2022-11-23T19:31:21.069Z,93.90
2022-11-23T19:33:51.420Z,93.80
2022-11-23T19:36:22.626Z,93.70
2022-11-23T19:38:49.703Z,93.90
2022-11-23T19:41:16.851Z,94.30
2022-11-23T19:43:48.238Z,94.70
2022-11-23T19:46:15.085Z,95.10
2022-11-23T19:48:42.651Z,95.20
2022-11-23T19:51:14.871Z,95.30
2022-11-23T19:53:44.240Z,95.30
2022-11-23T19:56:15.874Z,95.40
2022-11-23T19:58:43.063Z,95.40
2022-11-23T20:01:17.689Z,95.40
2022-11-23T20:03:46.326Z,95.50
2022-11-23T20:06:21.832Z,95.60
2022-11-23T20:08:53.144Z,95.40
2022-11-23T20:11:19.879Z,95.30
2022-11-23T20:13:46.618Z,95.30
2022-11-23T20:16:15.966Z,95.60
2022-11-23T20:18:45.095Z,95.70
2022-11-23T20:21:18.420Z,95.70
2022-11-23T20:23:46.022Z,95.30
2022-11-23T20:26:15.160Z,95.20
2022-11-23T20:28:43.244Z,95.20
2022-11-23T20:31:20.040Z,95.40
2022-11-23T20:33:50.320Z,94.70
2022-11-23T20:36:21.550Z,94.60
2022-11-23T20:38:48.454Z,94.40
2022-11-23T20:41:24.358Z,94.50
2022-11-23T20:43:58.950Z,94.60
2022-11-23T20:46:53.801Z,94.60
2022-11-23T20:49:13.577Z,94.50
2022-11-23T20:51:40.944Z,95.00
2022-11-23T20:54:08.800Z,94.80
2022-11-23T20:56:37.418Z,94.80
2022-11-23T20:59:04.735Z,94.60
2022-11-23T21:01:31.685Z,94.60
2022-11-23T21:03:58.940Z,94.50
2022-11-23T21:06:25.980Z,94.50
2022-11-23T21:08:52.808Z,94.40
2022-11-23T21:11:42.282Z,94.40
2022-11-23T21:14:19.553Z,94.20
2022-11-23T21:16:56.187Z,94.20
2022-11-23T21:19:23.753Z,94.30
2022-11-23T21:21:50.553Z,94.50
2022-11-23T21:24:17.378Z,94.50
2022-11-23T21:26:45.758Z,94.50
2022-11-23T21:29:14.501Z,94.80
2022-11-23T21:31:42.594Z,94.40
2022-11-23T21:34:20.549Z,94.30
2022-11-23T21:36:47.493Z,94.20
2022-11-23T21:39:16.039Z,94.10
2022-11-23T21:41:42.836Z,94.10
2022-11-23T21:44:09.848Z,94.20
2022-11-23T21:46:37.584Z,94.20
2022-11-23T21:49:04.470Z,94.00
2022-11-23T21:51:31.474Z,93.80
2022-11-23T21:53:59.707Z,93.80
2022-11-23T21:56:26.764Z,93.70
2022-11-23T21:58:53.573Z,93.70
2022-11-23T22:01:26.016Z,93.60
2022-11-23T22:03:54.468Z,93.60
2022-11-23T22:06:21.263Z,93.70
2022-11-23T22:08:49.900Z,93.70
2022-11-23T22:11:23.120Z,93.90
2022-11-23T22:13:56.689Z,94.10
2022-11-23T22:16:31.156Z,94.30
2022-11-23T22:18:58.171Z,94.60
2022-11-23T22:21:29.460Z,94.30
2022-11-23T22:23:56.250Z,94.40
2022-11-23T22:26:23.400Z,94.40
2022-11-23T22:28:50.835Z,94.50
2022-11-23T22:31:19.806Z,94.50
2022-11-23T22:33:47.240Z,94.50
2022-11-23T22:36:19.819Z,94.50
2022-11-23T22:38:47.923Z,94.60
2022-11-23T22:41:16.166Z,94.60
2022-11-23T22:43:43.176Z,94.70
2022-11-23T22:46:14.569Z,94.60
2022-11-23T22:48:42.745Z,94.70
2022-11-23T22:51:11.684Z,95.00
2022-11-23T22:53:44.597Z,94.70
2022-11-23T22:56:21.285Z,94.70
2022-11-23T22:58:49.002Z,94.80
2022-11-23T23:01:20.908Z,94.70
2022-11-23T23:03:48.863Z,94.80
2022-11-23T23:06:17.514Z,94.90
2022-11-23T23:08:45.624Z,94.80
2022-11-23T23:11:12.654Z,94.80
2022-11-23T23:13:39.647Z,94.90
2022-11-23T23:16:10.753Z,95.00
2022-11-23T23:18:37.697Z,95.00
2022-11-23T23:21:10.924Z,95.00
2022-11-23T23:23:42.240Z,94.90
2022-11-23T23:26:09.377Z,94.80
2022-11-23T23:28:36.342Z,94.80
2022-11-23T23:31:07.480Z,94.80
2022-11-23T23:33:34.412Z,94.80
2022-11-23T23:36:09.051Z,94.80
2022-11-23T23:38:36.796Z,94.80
2022-11-23T23:41:03.948Z,94.80
2022-11-23T23:43:30.755Z,94.90
2022-11-23T23:46:01.387Z,94.90
2022-11-23T23:48:35.504Z,95.00
2022-11-23T23:51:09.806Z,95.00
2022-11-23T23:53:36.837Z,95.00
2022-11-23T23:56:05.605Z,95.10
2022-11-23T23:58:32.390Z,94.90
